Time;durP1;ratioP1;P1;durP2;ratioP2;P2;SDS_P1;SDS_P2;PMS_P1;PMS_P2;Temp;Humidity;BMP_temperature;BMP_pressure;BME280_temperature;BME280_humidity;BME280_pressure;Samples;Min_cycle;Max_cycle;Signal;HPM_P1;HPM_P2
2021/07/03 00:01:56;;;;;;;1.10;0.98;;;21.90;99.90;;;;;;5031240;28;20235;-71
2021/07/03 00:04:26;;;;;;;1.17;1.13;;;21.90;99.90;;;;;;5022210;28;20200;-71
2021/07/03 00:06:53;;;;;;;1.20;1.00;;;21.90;99.90;;;;;;5023010;28;20741;-71
2021/07/03 00:09:20;;;;;;;0.98;0.98;;;21.90;99.90;;;;;;5023652;28;20204;-71
2021/07/03 00:11:48;;;;;;;1.13;1.00;;;21.90;99.90;;;;;;5025086;28;20234;-71
2021/07/03 00:14:15;;;;;;;1.05;1.00;;;21.90;99.90;;;;;;5023312;28;20204;-71
2021/07/03 00:16:43;;;;;;;1.23;1.00;;;21.90;99.90;;;;;;5016086;28;20227;-71
2021/07/03 00:19:11;;;;;;;1.70;1.60;;;21.90;99.90;;;;;;5018609;28;20662;-71
2021/07/03 00:21:39;;;;;;;1.40;1.30;;;21.80;99.90;;;;;;5030232;28;20222;-71
2021/07/03 00:24:06;;;;;;;1.48;1.38;;;21.70;99.90;;;;;;5043563;28;20198;-71
2021/07/03 00:26:33;;;;;;;1.13;1.02;;;21.70;99.90;;;;;;5042359;28;20596;-71
2021/07/03 00:29:01;;;;;;;1.33;1.23;;;21.60;99.90;;;;;;5043122;28;20573;-71
2021/07/03 00:31:28;;;;;;;2.10;1.10;;;21.60;99.90;;;;;;5048535;28;20222;-71
2021/07/03 00:33:55;;;;;;;1.30;1.20;;;21.60;99.90;;;;;;5049187;28;20199;-71
2021/07/03 00:36:22;;;;;;;1.20;1.13;;;21.60;99.90;;;;;;5037484;28;20322;-71
2021/07/03 00:38:50;;;;;;;0.93;0.93;;;21.60;99.90;;;;;;5027968;28;20207;-71
2021/07/03 00:41:17;;;;;;;1.20;1.20;;;21.60;99.90;;;;;;5029654;28;20578;-71
2021/07/03 00:43:44;;;;;;;1.20;1.13;;;21.60;99.90;;;;;;5027104;28;20202;-74
2021/07/03 00:46:12;;;;;;;1.02;1.02;;;21.60;99.90;;;;;;5053727;22;20227;-81
2021/07/03 00:48:40;;;;;;;1.20;1.00;;;21.60;99.90;;;;;;5075061;28;20270;-81
2021/07/03 00:51:07;;;;;;;1.65;1.45;;;21.60;99.90;;;;;;5076828;28;20207;-80
2021/07/03 00:53:34;;;;;;;1.08;1.05;;;21.60;99.90;;;;;;5072965;28;20191;-82
2021/07/03 00:56:04;;;;;;;1.30;1.20;;;21.60;99.90;;;;;;5084412;28;20206;-79
2021/07/03 00:58:31;;;;;;;1.00;1.00;;;21.50;99.90;;;;;;5071006;28;20198;-82
2021/07/03 01:00:58;;;;;;;1.05;1.05;;;21.50;99.90;;;;;;5080084;28;20202;-82
2021/07/03 01:03:25;;;;;;;1.10;1.10;;;21.40;99.90;;;;;;5074827;28;20219;-81
2021/07/03 01:05:52;;;;;;;1.30;1.20;;;21.40;99.90;;;;;;5079047;28;20229;-81
2021/07/03 01:08:20;;;;;;;1.08;0.98;;;21.40;99.90;;;;;;5076592;28;20215;-81
2021/07/03 01:10:47;;;;;;;1.42;1.33;;;21.40;99.90;;;;;;5075024;28;20195;-82
2021/07/03 01:13:16;;;;;;;3.65;1.15;;;21.40;99.90;;;;;;5076539;28;20603;-83
2021/07/03 01:15:43;;;;;;;3.03;1.50;;;21.30;99.90;;;;;;5077537;28;20187;-81
2021/07/03 01:18:10;;;;;;;1.23;1.13;;;21.30;99.90;;;;;;5077129;28;20226;-82
2021/07/03 01:20:37;;;;;;;1.40;1.30;;;21.30;99.90;;;;;;5074690;28;20194;-83
2021/07/03 01:23:06;;;;;;;1.20;1.20;;;21.30;99.90;;;;;;5077828;28;20206;-82
2021/07/03 01:25:34;;;;;;;1.20;1.10;;;21.20;99.90;;;;;;5098931;28;20218;-82
2021/07/03 01:28:03;;;;;;;1.35;1.25;;;21.20;99.90;;;;;;5098520;28;20265;-83
2021/07/03 01:30:32;;;;;;;1.25;1.25;;;21.20;99.90;;;;;;5095053;28;20187;-82
2021/07/03 01:33:00;;;;;;;1.20;1.10;;;21.20;99.90;;;;;;5077875;28;20226;-82
2021/07/03 01:35:29;;;;;;;1.42;1.33;;;21.20;99.90;;;;;;5077431;28;20203;-82
2021/07/03 01:40:32;;;;;;;1.42;1.33;;;21.10;99.90;;;;;;5092569;28;20702;-75
2021/07/03 01:42:59;;;;;;;1.35;1.23;;;21.10;99.90;;;;;;5087976;28;20217;-75
2021/07/03 01:45:26;;;;;;;1.15;1.10;;;21.10;99.90;;;;;;5090922;28;20189;-76
2021/07/03 01:47:53;;;;;;;1.77;1.30;;;21.00;99.90;;;;;;5085193;28;20239;-76
2021/07/03 01:50:20;;;;;;;1.30;1.20;;;21.00;99.90;;;;;;5086526;28;20202;-76
2021/07/03 01:52:51;;;;;;;1.30;1.30;;;21.00;99.90;;;;;;5092018;28;20724;-75
2021/07/03 01:55:18;;;;;;;1.42;1.33;;;21.00;99.90;;;;;;5085593;28;20190;-75
2021/07/03 01:57:46;;;;;;;1.20;1.10;;;21.00;99.90;;;;;;5100523;28;21341;-76
2021/07/03 02:00:15;;;;;;;1.25;1.25;;;21.00;99.90;;;;;;5085408;28;20202;-75
2021/07/03 02:02:42;;;;;;;1.52;1.42;;;21.00;99.90;;;;;;5087433;28;20214;-75
2021/07/03 02:05:10;;;;;;;2.10;1.30;;;21.00;99.90;;;;;;5091328;28;20205;-76
2021/07/03 02:07:37;;;;;;;1.92;1.33;;;21.00;99.90;;;;;;5087429;28;20696;-75
2021/07/03 02:10:05;;;;;;;1.65;1.55;;;20.80;99.90;;;;;;5090982;28;20686;-76
2021/07/03 02:12:32;;;;;;;1.50;1.40;;;20.70;99.90;;;;;;5095615;28;20235;-75
2021/07/03 02:15:00;;;;;;;1.25;1.23;;;20.60;99.90;;;;;;5090897;28;20204;-75
2021/07/03 02:17:28;;;;;;;1.52;1.42;;;20.70;99.90;;;;;;5089959;28;20220;-75
2021/07/03 02:19:55;;;;;;;1.30;1.20;;;20.60;99.90;;;;;;5089511;28;20514;-75
2021/07/03 02:22:23;;;;;;;2.20;1.40;;;20.70;99.90;;;;;;5095090;28;20596;-76
2021/07/03 02:24:50;;;;;;;1.23;1.13;;;20.70;99.90;;;;;;5091086;28;20198;-76
2021/07/03 02:27:17;;;;;;;1.45;1.35;;;20.70;99.90;;;;;;5092036;28;20257;-76
2021/07/03 02:29:45;;;;;;;1.30;1.20;;;20.70;99.90;;;;;;5090072;28;20197;-75
2021/07/03 02:32:13;;;;;;;1.27;1.17;;;20.60;99.90;;;;;;5089467;28;20260;-75
2021/07/03 02:34:40;;;;;;;1.50;1.40;;;20.60;99.90;;;;;;5087426;28;20206;-75
2021/07/03 02:37:07;;;;;;;1.52;1.42;;;20.60;99.90;;;;;;5091352;28;20224;-75
2021/07/03 02:39:34;;;;;;;1.50;1.40;;;20.60;99.90;;;;;;5088027;28;20205;-75
2021/07/03 02:42:02;;;;;;;1.40;1.30;;;20.50;99.90;;;;;;5084717;28;20217;-75
2021/07/03 02:44:29;;;;;;;1.50;1.40;;;20.50;99.90;;;;;;5086997;28;20229;-75
2021/07/03 02:46:56;;;;;;;1.27;1.17;;;20.50;99.90;;;;;;5084105;28;20222;-75
2021/07/03 02:49:25;;;;;;;1.40;1.30;;;20.50;99.90;;;;;;5103649;28;20197;-75
2021/07/03 02:51:52;;;;;;;1.40;1.30;;;20.40;99.90;;;;;;5083233;28;20214;-76
2021/07/03 02:54:19;;;;;;;1.40;1.30;;;20.40;99.90;;;;;;5069515;28;20559;-75
2021/07/03 02:56:46;;;;;;;1.38;1.27;;;20.40;99.90;;;;;;5068891;28;20226;-76
2021/07/03 02:59:14;;;;;;;1.35;1.25;;;20.40;99.90;;;;;;5067298;28;20202;-75
2021/07/03 03:01:41;;;;;;;1.42;1.33;;;20.40;99.90;;;;;;5068273;28;20505;-76
2021/07/03 03:04:08;;;;;;;1.40;1.30;;;20.40;99.90;;;;;;5070592;28;20203;-75
2021/07/03 03:06:36;;;;;;;1.08;1.08;;;20.30;99.90;;;;;;5068156;28;20229;-75
2021/07/03 03:09:04;;;;;;;1.40;1.30;;;20.30;99.90;;;;;;5066838;28;20576;-75
2021/07/03 03:11:31;;;;;;;1.35;1.25;;;20.30;99.90;;;;;;5066705;28;20201;-75
2021/07/03 03:13:58;;;;;;;1.33;1.30;;;20.30;99.90;;;;;;5066479;28;20229;-76
2021/07/03 03:16:26;;;;;;;1.60;1.50;;;20.20;99.90;;;;;;5065180;28;20214;-77
2021/07/03 03:18:54;;;;;;;2.53;1.58;;;20.20;99.90;;;;;;5067548;28;20228;-75
2021/07/03 03:21:21;;;;;;;1.40;1.30;;;20.20;99.90;;;;;;5068054;28;20198;-75
2021/07/03 03:23:49;;;;;;;1.50;1.40;;;20.30;99.90;;;;;;5063554;28;20225;-75
2021/07/03 03:26:17;;;;;;;1.88;1.10;;;20.20;99.90;;;;;;5062175;28;20231;-75
2021/07/03 03:28:44;;;;;;;1.40;1.30;;;20.20;99.90;;;;;;5066255;28;20225;-76
2021/07/03 03:31:11;;;;;;;1.65;1.55;;;20.20;99.90;;;;;;5064508;28;20222;-76
2021/07/03 03:33:38;;;;;;;1.98;1.40;;;20.20;99.90;;;;;;5065412;28;20226;-76
2021/07/03 03:36:05;;;;;;;1.42;1.33;;;20.20;99.90;;;;;;5067324;28;20225;-75
2021/07/03 03:38:33;;;;;;;1.65;1.55;;;20.10;99.90;;;;;;5067622;28;20240;-75
2021/07/03 03:41:01;;;;;;;1.70;1.55;;;20.10;99.90;;;;;;5078825;28;20568;-76
2021/07/03 03:43:28;;;;;;;1.30;1.20;;;20.10;99.90;;;;;;5067793;28;20222;-75
2021/07/03 03:45:55;;;;;;;1.52;1.42;;;20.10;99.90;;;;;;5064131;28;20214;-75
2021/07/03 03:48:22;;;;;;;1.65;1.55;;;20.10;99.90;;;;;;5065070;28;20214;-75
2021/07/03 03:50:50;;;;;;;1.40;1.30;;;20.10;99.90;;;;;;5063096;28;20198;-75
2021/07/03 03:53:17;;;;;;;1.50;1.50;;;20.10;99.90;;;;;;5064299;28;20225;-75
2021/07/03 03:55:44;;;;;;;1.15;1.13;;;20.10;99.90;;;;;;5065499;28;20205;-75
2021/07/03 03:58:12;;;;;;;1.77;1.65;;;20.10;99.90;;;;;;5062581;28;20218;-76
2021/07/03 04:00:39;;;;;;;1.80;1.70;;;20.10;99.90;;;;;;5066553;28;20194;-75
2021/07/03 04:03:06;;;;;;;1.38;1.27;;;20.10;99.90;;;;;;5062337;28;20226;-76
2021/07/03 04:05:33;;;;;;;1.67;1.58;;;20.10;99.90;;;;;;5066931;28;20205;-76
2021/07/03 04:08:01;;;;;;;1.30;1.20;;;20.10;99.90;;;;;;5060975;28;20233;-76
2021/07/03 04:10:28;;;;;;;1.40;1.30;;;20.10;99.90;;;;;;5066575;28;20198;-75
2021/07/03 04:12:55;;;;;;;1.70;1.60;;;20.10;99.90;;;;;;5060362;28;20222;-75
2021/07/03 04:15:23;;;;;;;3.42;1.55;;;20.10;99.90;;;;;;5068418;28;20199;-76
2021/07/03 04:17:51;;;;;;;1.60;1.50;;;20.10;99.90;;;;;;5065896;28;20226;-75
2021/07/03 04:20:18;;;;;;;1.42;1.33;;;20.10;99.90;;;;;;5063215;28;20285;-76
2021/07/03 04:22:45;;;;;;;1.67;1.58;;;20.10;99.90;;;;;;5068776;28;20213;-76
2021/07/03 04:25:15;;;;;;;1.95;1.50;;;20.10;99.90;;;;;;5067963;28;20202;-75
2021/07/03 04:27:42;;;;;;;1.65;1.55;;;20.10;99.90;;;;;;5061836;28;20271;-75
2021/07/03 04:30:11;;;;;;;1.52;1.42;;;20.10;99.90;;;;;;5063458;28;20203;-76
2021/07/03 04:32:39;;;;;;;1.63;1.52;;;20.10;99.90;;;;;;5080743;28;20225;-75
2021/07/03 04:35:08;;;;;;;1.50;1.40;;;20.10;99.90;;;;;;5061151;28;20676;-75
2021/07/03 04:37:36;;;;;;;1.45;1.35;;;20.10;99.90;;;;;;5061520;28;20236;-75
2021/07/03 04:40:04;;;;;;;1.60;1.50;;;20.10;99.90;;;;;;5065194;28;21080;-76
2021/07/03 04:42:31;;;;;;;1.55;1.45;;;20.10;99.90;;;;;;5064411;28;20217;-75
2021/07/03 04:44:58;;;;;;;1.45;1.38;;;20.10;99.90;;;;;;5061355;28;20600;-76
2021/07/03 04:47:25;;;;;;;1.60;1.50;;;20.10;99.90;;;;;;5066601;28;20222;-75
2021/07/03 04:49:54;;;;;;;1.73;1.63;;;20.10;99.90;;;;;;5061473;28;20213;-75
2021/07/03 04:52:22;;;;;;;1.70;1.60;;;20.30;99.90;;;;;;5065697;28;20210;-76
2021/07/03 04:54:49;;;;;;;1.73;1.63;;;20.50;99.90;;;;;;5065686;28;20498;-75
2021/07/03 04:57:16;;;;;;;1.95;1.50;;;20.70;99.90;;;;;;5065355;28;20705;-76
2021/07/03 04:59:44;;;;;;;1.45;1.35;;;20.90;99.90;;;;;;5062021;28;20202;-76
2021/07/03 05:02:13;;;;;;;1.65;1.55;;;21.10;99.90;;;;;;5062393;28;20229;-76
2021/07/03 05:04:41;;;;;;;1.63;1.52;;;21.20;99.90;;;;;;5061753;28;20232;-76
2021/07/03 05:07:10;;;;;;;2.08;1.88;;;21.20;99.90;;;;;;5062999;28;20225;-75
2021/07/03 05:09:37;;;;;;;2.20;2.00;;;21.20;99.90;;;;;;5062826;28;20687;-76
2021/07/03 05:12:05;;;;;;;2.05;1.95;;;21.20;99.90;;;;;;5064366;28;20198;-76
2021/07/03 05:14:32;;;;;;;2.10;1.80;;;21.20;99.90;;;;;;5062563;28;20194;-75
2021/07/03 05:17:00;;;;;;;2.08;1.65;;;21.30;99.90;;;;;;5064182;28;20214;-75
2021/07/03 05:19:27;;;;;;;1.98;1.88;;;21.40;99.90;;;;;;5060125;28;20194;-75
2021/07/03 05:21:55;;;;;;;2.97;1.98;;;21.30;99.90;;;;;;5063834;28;20198;-76
2021/07/03 05:24:24;;;;;;;1.98;1.88;;;21.30;99.90;;;;;;5078139;28;20190;-75
2021/07/03 05:26:51;;;;;;;1.85;1.75;;;21.30;99.90;;;;;;5057651;28;20222;-76
2021/07/03 05:29:18;;;;;;;3.13;2.03;;;21.50;99.90;;;;;;5065411;28;20194;-76
2021/07/03 05:31:45;;;;;;;1.90;1.80;;;21.60;99.90;;;;;;5055506;28;20199;-76
2021/07/03 05:34:12;;;;;;;2.58;2.40;;;21.60;99.90;;;;;;5066202;28;20249;-75
2021/07/03 05:36:39;;;;;;;2.25;1.85;;;21.60;99.90;;;;;;5061535;28;20218;-76
2021/07/03 05:39:06;;;;;;;2.03;1.70;;;21.60;99.90;;;;;;5064664;28;20222;-75
2021/07/03 05:41:35;;;;;;;3.53;2.22;;;21.50;99.90;;;;;;5063323;28;20836;-76
2021/07/03 05:44:03;;;;;;;4.00;2.45;;;21.30;99.90;;;;;;5064149;28;20588;-76
2021/07/03 05:46:31;;;;;;;2.40;2.20;;;21.20;99.90;;;;;;5058564;28;20303;-75
2021/07/03 05:48:58;;;;;;;2.05;1.95;;;21.20;99.90;;;;;;5061370;28;20229;-75
2021/07/03 05:51:27;;;;;;;2.40;2.20;;;21.30;99.90;;;;;;5062968;28;20998;-75
2021/07/03 05:53:55;;;;;;;2.20;1.90;;;21.40;99.90;;;;;;5058412;28;20214;-75
2021/07/03 05:56:22;;;;;;;2.05;1.95;;;21.50;99.90;;;;;;5060728;28;20238;-77
2021/07/03 05:58:51;;;;;;;2.90;2.28;;;21.60;99.90;;;;;;5065859;28;20221;-75
2021/07/03 06:01:18;;;;;;;2.28;1.98;;;21.70;99.90;;;;;;5066760;28;20198;-75
2021/07/03 06:03:45;;;;;;;2.50;2.20;;;21.80;99.90;;;;;;5063211;28;20234;-75
2021/07/03 06:06:12;;;;;;;2.50;2.30;;;21.70;99.90;;;;;;5067743;28;20218;-75
2021/07/03 06:08:40;;;;;;;2.03;1.92;;;21.70;99.90;;;;;;5062416;28;20222;-74
2021/07/03 06:11:07;;;;;;;2.60;2.40;;;21.90;99.90;;;;;;5064456;28;20194;-75
2021/07/03 06:13:35;;;;;;;2.00;1.90;;;21.90;99.90;;;;;;5064606;28;20213;-74
2021/07/03 06:16:04;;;;;;;2.28;2.08;;;21.90;99.90;;;;;;5073748;28;20214;-76
2021/07/03 06:18:31;;;;;;;2.30;2.20;;;22.00;99.90;;;;;;5058745;28;20221;-76
2021/07/03 06:20:58;;;;;;;3.45;2.47;;;22.20;99.90;;;;;;5063918;28;20680;-76
2021/07/03 06:23:26;;;;;;;2.50;2.30;;;22.30;99.90;;;;;;5066935;28;20284;-77
2021/07/03 06:25:53;;;;;;;2.85;2.20;;;22.40;99.90;;;;;;5064195;28;20215;-77
2021/07/03 06:28:20;;;;;;;2.28;2.08;;;22.40;99.90;;;;;;5066866;28;20659;-75
2021/07/03 06:30:47;;;;;;;2.85;2.45;;;22.50;99.90;;;;;;5068242;28;20199;-76
2021/07/03 06:33:15;;;;;;;2.42;2.22;;;22.70;99.90;;;;;;5061829;28;20222;-77
2021/07/03 06:35:43;;;;;;;2.97;2.05;;;22.70;99.90;;;;;;5067135;28;20202;-77
2021/07/03 06:38:10;;;;;;;2.70;2.50;;;22.80;99.90;;;;;;5067245;28;20602;-76
2021/07/03 06:40:37;;;;;;;2.42;2.22;;;22.80;99.90;;;;;;5069651;28;20195;-76
2021/07/03 06:43:04;;;;;;;2.58;2.38;;;22.90;99.90;;;;;;5063723;28;20595;-77
2021/07/03 06:45:31;;;;;;;2.53;2.35;;;23.00;99.90;;;;;;5062612;28;20222;-78
2021/07/03 06:47:58;;;;;;;2.45;2.25;;;23.10;99.90;;;;;;5095249;22;20257;-73
2021/07/03 06:50:27;;;;;;;3.35;2.35;;;23.20;99.90;;;;;;5085124;28;20198;-73
2021/07/03 06:52:54;;;;;;;2.55;2.35;;;23.40;99.90;;;;;;5089217;28;20690;-73
2021/07/03 06:55:21;;;;;;;2.63;2.38;;;23.40;99.90;;;;;;5090322;28;20581;-73
2021/07/03 06:57:48;;;;;;;2.25;2.05;;;23.50;99.90;;;;;;5067504;28;20218;-73
2021/07/03 07:00:16;;;;;;;2.50;2.33;;;23.50;99.90;;;;;;5072549;28;20195;-73
2021/07/03 07:02:43;;;;;;;2.47;2.28;;;23.50;99.90;;;;;;5067374;28;20229;-73
2021/07/03 07:05:12;;;;;;;2.53;2.33;;;23.70;99.90;;;;;;5067182;28;20696;-73
2021/07/03 07:07:40;;;;;;;2.42;2.22;;;24.00;99.90;;;;;;5071174;28;20593;-73
2021/07/03 07:10:09;;;;;;;2.72;2.53;;;24.20;99.90;;;;;;5066323;28;20203;-73
2021/07/03 07:12:36;;;;;;;2.30;2.10;;;24.30;99.90;;;;;;5062763;28;20251;-75
2021/07/03 07:15:03;;;;;;;2.72;1.90;;;24.30;99.90;;;;;;5050162;28;20195;-73
2021/07/03 07:17:30;;;;;;;2.30;2.10;;;24.30;99.90;;;;;;5045679;28;20219;-73
2021/07/03 07:19:57;;;;;;;2.40;2.20;;;24.10;99.90;;;;;;5050593;28;20220;-73
2021/07/03 07:22:24;;;;;;;2.75;2.10;;;24.10;99.90;;;;;;5033371;28;22061;-72
2021/07/03 07:24:53;;;;;;;2.50;2.30;;;24.10;99.90;;;;;;5040832;28;20725;-72
2021/07/03 07:27:20;;;;;;;3.00;2.30;;;24.20;99.90;;;;;;5050497;28;20738;-72
2021/07/03 07:29:47;;;;;;;2.53;2.33;;;24.20;99.90;;;;;;5045551;28;20663;-72
2021/07/03 07:32:14;;;;;;;3.08;2.40;;;24.30;99.90;;;;;;5042770;28;20628;-72
2021/07/03 07:34:41;;;;;;;2.97;2.38;;;24.30;99.90;;;;;;5045999;28;20531;-72
2021/07/03 07:37:09;;;;;;;3.10;2.58;;;24.50;99.90;;;;;;5046519;28;20431;-72
2021/07/03 07:39:36;;;;;;;2.50;2.30;;;24.60;99.90;;;;;;5042512;28;20607;-72
2021/07/03 07:42:05;;;;;;;2.50;2.30;;;24.70;99.90;;;;;;5043776;28;20202;-72
2021/07/03 07:44:32;;;;;;;2.42;2.22;;;24.70;99.90;;;;;;5051860;28;20225;-72
2021/07/03 07:46:59;;;;;;;4.78;2.63;;;25.00;99.90;;;;;;5053985;28;20226;-72
2021/07/03 07:49:26;;;;;;;3.00;2.72;;;25.30;99.90;;;;;;5050796;28;20600;-74
2021/07/03 07:51:54;;;;;;;2.58;2.38;;;25.30;99.90;;;;;;5053902;28;20451;-74
2021/07/03 07:54:21;;;;;;;2.40;2.20;;;25.20;99.90;;;;;;5040925;28;20219;-74
2021/07/03 07:56:48;;;;;;;2.80;2.60;;;25.10;99.90;;;;;;5046765;28;20214;-73
2021/07/03 07:59:16;;;;;;;2.38;2.17;;;25.10;99.90;;;;;;5034588;28;20238;-73
2021/07/03 08:01:43;;;;;;;2.88;2.60;;;25.10;99.90;;;;;;5036431;28;20207;-73
2021/07/03 08:04:10;;;;;;;2.67;2.35;;;25.30;99.90;;;;;;5034031;28;20632;-74
2021/07/03 08:06:38;;;;;;;2.92;2.40;;;25.30;99.90;;;;;;5033525;28;20211;-73
2021/07/03 08:09:05;;;;;;;2.10;2.00;;;25.30;99.90;;;;;;5030991;28;20467;-73
2021/07/03 08:11:33;;;;;;;3.55;2.38;;;25.40;99.90;;;;;;5025739;28;20220;-72
2021/07/03 08:14:00;;;;;;;2.10;2.00;;;25.50;99.90;;;;;;5041021;28;20741;-72
2021/07/03 08:16:28;;;;;;;2.90;2.60;;;25.40;99.90;;;;;;5031452;28;20212;-72
2021/07/03 08:18:55;;;;;;;3.83;2.83;;;25.50;99.90;;;;;;5029965;28;20449;-71
2021/07/03 08:21:23;;;;;;;3.97;2.33;;;25.50;99.90;;;;;;5028850;28;20508;-71
2021/07/03 08:23:51;;;;;;;2.60;2.40;;;25.60;99.90;;;;;;5032429;28;20227;-72
2021/07/03 08:26:18;;;;;;;2.17;2.08;;;25.70;99.90;;;;;;5027662;28;20218;-72
2021/07/03 08:28:45;;;;;;;2.95;2.00;;;25.70;99.90;;;;;;5036836;28;20250;-72
2021/07/03 08:31:13;;;;;;;3.53;2.53;;;25.80;99.90;;;;;;5028439;28;20645;-71
2021/07/03 08:33:41;;;;;;;2.00;1.90;;;25.80;99.90;;;;;;5034253;28;20219;-71
2021/07/03 08:36:08;;;;;;;2.60;1.77;;;25.80;99.90;;;;;;5032883;28;20195;-71
2021/07/03 08:38:35;;;;;;;2.42;2.20;;;26.00;99.90;;;;;;5029199;28;20633;-70
2021/07/03 08:41:03;;;;;;;2.17;2.00;;;26.20;99.90;;;;;;5028928;28;20199;-72
2021/07/03 08:43:30;;;;;;;2.25;2.15;;;26.30;99.90;;;;;;5028729;28;20222;-71
2021/07/03 08:45:58;;;;;;;2.45;2.25;;;26.40;99.90;;;;;;5034633;28;20199;-72
2021/07/03 08:48:26;;;;;;;2.90;1.95;;;26.50;99.90;;;;;;5028839;28;20235;-71
2021/07/03 08:50:58;;;;;;;1.73;1.63;;;26.70;99.90;;;;;;5030259;28;20203;-71
2021/07/03 08:53:25;;;;;;;2.00;1.80;;;26.80;99.90;;;;;;5030777;28;20231;-74
2021/07/03 08:55:53;;;;;;;2.13;2.03;;;27.00;99.90;;;;;;5030495;28;20740;-73
2021/07/03 08:58:20;;;;;;;1.98;1.88;;;27.30;99.90;;;;;;5030844;28;20372;-73
2021/07/03 09:00:48;;;;;;;2.58;2.38;;;27.40;99.90;;;;;;5033107;28;20206;-71
2021/07/03 09:03:17;;;;;;;3.25;2.38;;;27.30;99.90;;;;;;5027290;28;20223;-72
2021/07/03 09:05:49;;;;;;;2.30;2.10;;;27.30;99.90;;;;;;5027348;28;20191;-72
2021/07/03 09:08:20;;;;;;;2.33;2.13;;;27.30;99.90;;;;;;5037457;28;21469;-70
2021/07/03 09:10:48;;;;;;;2.13;1.95;;;27.50;99.90;;;;;;5057499;28;20208;-70
2021/07/03 09:13:15;;;;;;;2.70;2.22;;;27.80;99.90;;;;;;5062650;28;20233;-71
2021/07/03 09:15:44;;;;;;;2.42;2.22;;;27.80;99.70;;;;;;5062748;28;20575;-72
2021/07/03 09:18:12;;;;;;;3.10;2.17;;;27.80;99.20;;;;;;5062520;28;20230;-71
2021/07/03 09:20:43;;;;;;;2.40;2.20;;;27.60;99.30;;;;;;5058460;28;20618;-71
2021/07/03 09:23:12;;;;;;;2.10;1.90;;;27.60;99.90;;;;;;5065247;28;20221;-71
2021/07/03 09:25:43;;;;;;;2.65;2.03;;;28.00;99.90;;;;;;5061836;28;20200;-72
2021/07/03 09:28:16;;;;;;;1.98;1.88;;;28.20;99.40;;;;;;5061430;28;20574;-72
2021/07/03 09:30:44;;;;;;;2.03;1.92;;;28.40;98.90;;;;;;5025876;28;20211;-72
2021/07/03 09:33:16;;;;;;;2.00;1.90;;;28.70;99.50;;;;;;5031039;28;20878;-71
2021/07/03 09:35:54;;;;;;;3.58;1.83;;;28.90;98.90;;;;;;5030835;28;20199;-72
2021/07/03 09:38:29;;;;;;;1.92;1.83;;;29.00;98.00;;;;;;5033756;28;20224;-71
2021/07/03 09:41:08;;;;;;;2.05;1.83;;;28.70;96.60;;;;;;5052920;28;20298;-71
2021/07/03 09:43:36;;;;;;;2.50;2.30;;;28.40;96.30;;;;;;5051138;28;20222;-72
2021/07/03 09:46:03;;;;;;;2.25;2.05;;;28.30;97.80;;;;;;5050946;28;20186;-71
2021/07/03 09:48:30;;;;;;;2.65;1.77;;;28.40;97.10;;;;;;5048758;28;20254;-71
2021/07/03 09:51:08;;;;;;;1.83;1.67;;;28.50;97.70;;;;;;5053801;28;20206;-71
2021/07/03 09:53:35;;;;;;;2.22;2.03;;;28.60;97.30;;;;;;5047636;28;20226;-71
2021/07/03 09:56:03;;;;;;;1.98;1.88;;;28.70;97.60;;;;;;5053897;28;20538;-72
2021/07/03 09:58:32;;;;;;;2.08;1.98;;;28.70;98.30;;;;;;5053252;28;20231;-72
2021/07/03 10:00:59;;;;;;;4.10;1.90;;;28.80;98.30;;;;;;5054080;28;20309;-72
2021/07/03 10:03:27;;;;;;;2.60;1.90;;;29.00;98.80;;;;;;5052708;28;20935;-71
2021/07/03 10:05:57;;;;;;;2.95;1.70;;;29.10;98.90;;;;;;5055629;28;20198;-71
2021/07/03 10:08:27;;;;;;;2.90;1.98;;;29.10;99.20;;;;;;5051470;28;20222;-72
2021/07/03 10:10:59;;;;;;;1.77;1.67;;;29.10;98.80;;;;;;5055342;28;20232;-71
2021/07/03 10:13:32;;;;;;;1.80;1.70;;;28.90;99.40;;;;;;5055608;28;20236;-72
2021/07/03 10:16:05;;;;;;;2.10;2.00;;;28.70;99.70;;;;;;5052559;28;20209;-71
2021/07/03 10:18:32;;;;;;;3.03;2.10;;;28.40;99.90;;;;;;5061432;28;20216;-71
2021/07/03 10:21:09;;;;;;;4.35;1.70;;;28.60;99.90;;;;;;5055678;28;20819;-72
2021/07/03 10:23:37;;;;;;;2.33;1.90;;;29.00;99.90;;;;;;5052838;28;20312;-71
2021/07/03 10:26:05;;;;;;;3.03;2.17;;;29.50;99.90;;;;;;5054662;28;20198;-71
2021/07/03 10:28:36;;;;;;;5.13;3.90;;;29.70;99.90;;;;;;5052174;28;20220;-74
2021/07/03 10:31:07;;;;;;;2.97;2.42;;;30.00;99.90;;;;;;5060239;28;20206;-71
2021/07/03 10:33:43;;;;;;;2.42;2.08;;;29.90;99.90;;;;;;5060305;28;20224;-71
2021/07/03 10:36:10;;;;;;;3.65;1.98;;;29.80;99.90;;;;;;5062319;28;20267;-70
2021/07/03 10:38:42;;;;;;;2.10;2.00;;;29.60;99.90;;;;;;5050857;28;20739;-69
2021/07/03 10:41:18;;;;;;;2.22;2.03;;;29.70;99.90;;;;;;5040188;28;20207;-70
2021/07/03 10:43:48;;;;;;;2.10;1.90;;;29.60;99.90;;;;;;5040992;28;20643;-70
2021/07/03 10:46:29;;;;;;;2.25;2.05;;;29.80;99.90;;;;;;5039017;28;20648;-70
2021/07/03 10:48:58;;;;;;;2.72;1.98;;;29.80;99.90;;;;;;5042127;28;20225;-70
2021/07/03 10:51:37;;;;;;;1.70;1.60;;;29.90;99.90;;;;;;5040046;28;20195;-71
2021/07/03 10:54:18;;;;;;;2.72;2.00;;;30.10;99.90;;;;;;5039889;28;20247;-71
2021/07/03 10:56:48;;;;;;;2.03;1.92;;;30.30;99.90;;;;;;5038845;28;20965;-72
2021/07/03 10:59:18;;;;;;;5.85;2.00;;;30.50;99.90;;;;;;5041303;28;20239;-71
2021/07/03 11:01:46;;;;;;;1.70;1.60;;;30.50;99.90;;;;;;5038068;28;20195;-72
2021/07/03 11:04:16;;;;;;;3.03;1.60;;;30.40;99.90;;;;;;5038179;28;20231;-71
2021/07/03 11:06:45;;;;;;;2.38;1.50;;;30.40;99.90;;;;;;5043487;28;20234;-72
2021/07/03 11:09:26;;;;;;;1.83;1.50;;;30.30;99.90;;;;;;5041004;28;20219;-71
2021/07/03 11:11:56;;;;;;;2.03;1.77;;;30.30;99.50;;;;;;5036827;28;20199;-71
2021/07/03 11:14:26;;;;;;;2.50;1.60;;;30.30;99.90;;;;;;5039435;28;21642;-73
2021/07/03 11:16:56;;;;;;;1.77;1.65;;;30.30;99.90;;;;;;5041230;28;20222;-73
2021/07/03 11:19:24;;;;;;;1.90;1.60;;;30.20;99.60;;;;;;5045627;28;20195;-71
2021/07/03 11:21:52;;;;;;;2.97;1.50;;;30.00;99.40;;;;;;5046719;28;20198;-71
2021/07/03 11:24:19;;;;;;;2.67;1.58;;;30.00;99.80;;;;;;5034863;28;20645;-72
2021/07/03 11:26:46;;;;;;;1.70;1.58;;;30.10;99.70;;;;;;5045442;28;20318;-72
2021/07/03 11:29:14;;;;;;;2.65;1.63;;;30.00;99.80;;;;;;5054129;28;20226;-70
2021/07/03 11:31:42;;;;;;;2.38;1.58;;;30.20;98.80;;;;;;5054658;28;20445;-71
2021/07/03 11:34:16;;;;;;;1.50;1.40;;;30.00;98.90;;;;;;5036046;28;20230;-71
2021/07/03 11:36:43;;;;;;;2.15;1.55;;;30.20;98.60;;;;;;5043233;28;20237;-71
2021/07/03 11:39:10;;;;;;;1.95;1.48;;;30.40;98.50;;;;;;5049334;28;20202;-70
2021/07/03 11:41:37;;;;;;;2.00;1.20;;;30.40;98.40;;;;;;5058530;28;20205;-70
2021/07/03 11:44:07;;;;;;;1.60;1.50;;;30.40;97.50;;;;;;5057788;28;20358;-70
2021/07/03 11:46:35;;;;;;;1.33;1.20;;;30.30;97.90;;;;;;5058266;28;20237;-72
2021/07/03 11:49:06;;;;;;;3.17;1.52;;;30.40;98.50;;;;;;5055360;28;20233;-71
2021/07/03 11:51:34;;;;;;;1.20;1.10;;;30.30;97.90;;;;;;5054904;28;20202;-71
2021/07/03 11:54:03;;;;;;;4.85;1.77;;;30.40;98.80;;;;;;5055069;28;20295;-72
2021/07/03 11:56:31;;;;;;;3.17;1.60;;;30.40;98.90;;;;;;5051218;28;20795;-71
2021/07/03 11:58:58;;;;;;;2.33;1.50;;;30.10;99.30;;;;;;5049645;28;20952;-72
2021/07/03 12:01:26;;;;;;;4.07;1.85;;;30.20;99.90;;;;;;5047931;28;20735;-72
2021/07/03 12:03:54;;;;;;;1.50;1.40;;;30.00;99.70;;;;;;5054985;28;20226;-71
2021/07/03 12:06:24;;;;;;;2.25;1.38;;;29.80;99.60;;;;;;5051452;28;20218;-71
2021/07/03 12:08:52;;;;;;;1.65;1.48;;;29.70;99.90;;;;;;5033364;28;20702;-72
2021/07/03 12:11:21;;;;;;;1.55;1.30;;;29.70;99.90;;;;;;5031694;28;21198;-72
2021/07/03 12:13:50;;;;;;;4.03;1.42;;;29.90;99.90;;;;;;5026087;28;20524;-74
2021/07/03 12:16:19;;;;;;;1.50;1.40;;;30.00;99.90;;;;;;5040991;28;20637;-70
2021/07/03 12:18:49;;;;;;;1.92;1.83;;;30.10;99.90;;;;;;5030951;28;20247;-72
2021/07/03 12:21:18;;;;;;;4.63;1.40;;;30.00;99.00;;;;;;5054013;28;20275;-72
2021/07/03 12:23:56;;;;;;;1.70;1.60;;;29.70;98.80;;;;;;5029279;28;20242;-73
2021/07/03 12:26:24;;;;;;;3.75;1.73;;;29.70;99.10;;;;;;5037986;28;20225;-73
2021/07/03 12:28:53;;;;;;;3.13;1.50;;;30.00;99.60;;;;;;5043788;28;20219;-74
2021/07/03 12:31:24;;;;;;;1.70;1.50;;;30.40;99.70;;;;;;5037256;28;20693;-73
2021/07/03 12:34:04;;;;;;;1.50;1.40;;;30.90;99.00;;;;;;5047704;28;20217;-73
2021/07/03 12:36:32;;;;;;;1.52;1.30;;;31.10;97.40;;;;;;5053423;28;20221;-73
2021/07/03 12:39:05;;;;;;;1.48;1.38;;;31.20;98.40;;;;;;5053413;28;20233;-74
2021/07/03 12:41:33;;;;;;;3.58;1.85;;;30.90;98.80;;;;;;5054626;28;20214;-74
2021/07/03 12:44:01;;;;;;;2.80;1.60;;;30.60;99.60;;;;;;5054978;28;20233;-73
2021/07/03 12:46:31;;;;;;;1.83;1.73;;;30.30;99.90;;;;;;5051153;28;20226;-72
2021/07/03 12:48:59;;;;;;;1.55;1.45;;;30.00;99.90;;;;;;5081690;22;20658;-85
2021/07/03 12:51:30;;;;;;;1.42;1.30;;;29.80;99.90;;;;;;5049382;28;20252;-86
2021/07/03 12:54:00;;;;;;;4.72;1.70;;;29.60;99.90;;;;;;5055582;28;20736;-87
2021/07/03 12:56:29;;;;;;;1.92;1.50;;;29.40;99.90;;;;;;5054098;28;20299;-86